Time;durP1;ratioP1;P1;durP2;ratioP2;P2;SDS_P1;SDS_P2;PMS_P1;PMS_P2;Temp;Humidity;BMP_temperature;BMP_pressure;BME280_temperature;BME280_humidity;BME280_pressure;Samples;Min_cycle;Max_cycle;Signal;HPM_P1;HPM_P2
2022/09/16 00:00:41;;;;;;;9.23;1.42;;;12.90;99.90;;;;;;5011312;28;20108;-77
2022/09/16 00:03:31;;;;;;;12.20;1.85;;;13.00;99.90;;;;;;5011401;28;20474;-77
2022/09/16 00:06:23;;;;;;;12.85;1.80;;;13.00;99.90;;;;;;4980909;28;20137;-79
2022/09/16 00:09:09;;;;;;;10.30;1.55;;;13.10;99.90;;;;;;4994252;28;20073;-78
2022/09/16 00:11:55;;;;;;;8.88;1.10;;;13.20;99.90;;;;;;5009897;28;20050;-77
2022/09/16 00:14:42;;;;;;;6.80;1.88;;;13.30;99.90;;;;;;4979630;28;20050;-77
2022/09/16 00:17:28;;;;;;;11.38;1.80;;;13.30;99.90;;;;;;5010929;28;20111;-78
2022/09/16 00:20:15;;;;;;;8.55;0.98;;;13.30;99.90;;;;;;5011440;28;20494;-77
2022/09/16 00:23:01;;;;;;;11.15;1.60;;;13.30;99.90;;;;;;5009674;28;20498;-79
2022/09/16 00:25:52;;;;;;;9.30;1.60;;;13.40;99.90;;;;;;5009651;28;20042;-79
2022/09/16 00:28:39;;;;;;;11.43;1.73;;;13.40;99.90;;;;;;5011206;28;20085;-79
2022/09/16 00:31:25;;;;;;;10.48;1.63;;;13.50;99.90;;;;;;4996344;28;20050;-78
2022/09/16 00:34:11;;;;;;;9.75;1.73;;;13.50;99.90;;;;;;4997106;28;20429;-78
2022/09/16 00:36:57;;;;;;;10.15;1.38;;;13.40;99.90;;;;;;4992944;28;20046;-76
2022/09/16 00:39:46;;;;;;;7.32;1.13;;;13.40;99.90;;;;;;5010497;28;20046;-77
2022/09/16 00:42:37;;;;;;;11.38;1.20;;;13.30;99.90;;;;;;5010831;28;20534;-78
2022/09/16 00:45:30;;;;;;;10.98;1.02;;;13.30;99.90;;;;;;4993675;28;20053;-77
2022/09/16 00:48:21;;;;;;;8.82;1.27;;;13.20;99.90;;;;;;5010297;28;20093;-78
2022/09/16 00:51:09;;;;;;;12.50;1.70;;;13.20;99.90;;;;;;5011018;28;20085;-78
2022/09/16 00:54:02;;;;;;;9.90;1.20;;;13.20;99.90;;;;;;5010632;28;20100;-78
2022/09/16 00:56:53;;;;;;;13.23;1.33;;;13.20;99.90;;;;;;4979086;28;20049;-78
2022/09/16 00:59:44;;;;;;;14.00;1.60;;;13.30;99.90;;;;;;5009660;28;20145;-79
2022/09/16 01:02:30;;;;;;;10.75;1.55;;;13.30;99.90;;;;;;5010076;28;20523;-77
2022/09/16 01:05:21;;;;;;;11.88;1.35;;;13.20;99.90;;;;;;4994299;28;20061;-78
2022/09/16 01:08:07;;;;;;;9.88;1.30;;;13.20;99.90;;;;;;4996404;28;20054;-79
2022/09/16 01:10:53;;;;;;;8.55;1.40;;;13.10;99.90;;;;;;5014484;28;20049;-77
2022/09/16 01:13:42;;;;;;;9.38;1.77;;;13.00;99.90;;;;;;4996080;28;20054;-77
2022/09/16 01:16:41;;;;;;;12.05;1.85;;;12.90;99.90;;;;;;5014493;28;20045;-77
2022/09/16 01:19:45;;;;;;;11.15;1.80;;;12.80;99.90;;;;;;5013306;28;20058;-79
2022/09/16 01:22:49;;;;;;;11.60;1.77;;;12.90;99.90;;;;;;5014283;28;20410;-76
2022/09/16 01:25:35;;;;;;;12.25;3.03;;;13.00;99.90;;;;;;5013604;28;20132;-78
2022/09/16 01:28:46;;;;;;;11.95;2.35;;;13.00;99.90;;;;;;4995672;28;20050;-78
2022/09/16 01:31:41;;;;;;;12.27;2.15;;;13.20;99.90;;;;;;5013502;28;20053;-77
2022/09/16 01:34:56;;;;;;;12.43;1.65;;;13.20;99.90;;;;;;5013557;28;20053;-77
2022/09/16 01:38:07;;;;;;;16.42;2.17;;;13.30;99.90;;;;;;5002009;28;20054;-79
2022/09/16 01:41:08;;;;;;;14.13;1.83;;;13.30;99.90;;;;;;4996433;28;20050;-80
2022/09/16 01:44:00;;;;;;;10.68;1.45;;;13.30;99.90;;;;;;5013860;28;20054;-80
2022/09/16 01:47:04;;;;;;;12.95;2.10;;;13.40;99.90;;;;;;4995418;28;20052;-78
2022/09/16 01:50:16;;;;;;;12.73;2.28;;;13.40;99.90;;;;;;4981982;28;20440;-78
2022/09/16 01:53:33;;;;;;;9.18;1.30;;;13.40;99.90;;;;;;5013809;28;20089;-77
2022/09/16 01:56:28;;;;;;;11.82;1.45;;;13.40;99.90;;;;;;4987225;28;20142;-78
2022/09/16 01:59:37;;;;;;;5.00;1.13;;;13.40;99.90;;;;;;5011724;28;20140;-79
2022/09/16 02:02:45;;;;;;;10.65;1.60;;;13.40;99.90;;;;;;4995559;28;20081;-78
2022/09/16 02:05:51;;;;;;;12.27;1.40;;;13.40;99.90;;;;;;4995480;28;20128;-78
2022/09/16 02:08:52;;;;;;;24.38;3.50;;;13.40;99.90;;;;;;4995407;28;20046;-78
2022/09/16 02:11:41;;;;;;;26.52;4.13;;;13.40;99.90;;;;;;5012177;28;20106;-78
2022/09/16 02:14:30;;;;;;;23.42;4.78;;;13.10;99.90;;;;;;4995635;28;20387;-76
2022/09/16 02:17:21;;;;;;;13.23;1.95;;;12.50;99.90;;;;;;5011722;28;20054;-75
2022/09/16 02:20:11;;;;;;;22.02;2.67;;;12.20;99.90;;;;;;4998108;28;20514;-76
2022/09/16 02:23:06;;;;;;;14.98;2.17;;;12.20;99.90;;;;;;4996146;28;20041;-76
2022/09/16 02:25:54;;;;;;;15.02;2.00;;;12.10;99.90;;;;;;5012250;28;20104;-75
2022/09/16 02:28:42;;;;;;;14.23;2.50;;;12.10;99.90;;;;;;5012466;28;20486;-76
2022/09/16 02:31:34;;;;;;;18.95;3.95;;;12.10;99.90;;;;;;4995366;28;20410;-74
2022/09/16 02:34:43;;;;;;;17.42;2.20;;;12.20;99.90;;;;;;5012259;28;20046;-75
2022/09/16 02:38:12;;;;;;;13.50;1.70;;;12.20;99.90;;;;;;4994462;28;20065;-76
2022/09/16 02:41:00;;;;;;;20.33;2.25;;;12.20;99.90;;;;;;5014119;28;20078;-80
2022/09/16 02:43:46;;;;;;;16.20;2.90;;;12.20;99.90;;;;;;4997089;28;20060;-78
2022/09/16 02:46:43;;;;;;;10.93;1.92;;;12.20;99.90;;;;;;5014081;28;20056;-80
2022/09/16 02:49:59;;;;;;;15.43;1.52;;;12.20;99.90;;;;;;5012552;28;20072;-79
2022/09/16 02:53:03;;;;;;;11.15;2.42;;;12.30;99.90;;;;;;5011624;28;20061;-78
2022/09/16 02:55:57;;;;;;;9.60;1.55;;;12.30;99.90;;;;;;5012167;28;20050;-79
2022/09/16 02:58:44;;;;;;;12.88;1.85;;;12.30;99.90;;;;;;4995261;28;20057;-81
2022/09/16 03:01:35;;;;;;;14.88;1.83;;;12.30;99.90;;;;;;4994841;28;20049;-80
2022/09/16 03:04:22;;;;;;;15.98;2.50;;;12.40;99.90;;;;;;5011765;28;20045;-80
2022/09/16 03:07:10;;;;;;;14.68;2.53;;;12.50;99.90;;;;;;4981425;28;20050;-80
2022/09/16 03:09:56;;;;;;;11.07;1.70;;;12.60;99.90;;;;;;4995282;28;20058;-80
2022/09/16 03:13:01;;;;;;;9.65;1.88;;;12.60;99.90;;;;;;5012222;28;20104;-79
2022/09/16 03:16:03;;;;;;;17.33;2.50;;;12.70;99.90;;;;;;5011660;28;20132;-79
2022/09/16 03:19:04;;;;;;;18.17;2.38;;;12.80;99.90;;;;;;4997745;28;20466;-79
2022/09/16 03:22:17;;;;;;;16.58;2.63;;;12.80;99.90;;;;;;5011370;28;20048;-78
2022/09/16 03:25:16;;;;;;;13.43;2.53;;;12.80;99.90;;;;;;4995039;28;20058;-79
2022/09/16 03:28:25;;;;;;;16.40;2.47;;;12.70;99.90;;;;;;5011763;28;20390;-79
2022/09/16 03:31:29;;;;;;;11.38;2.75;;;12.80;99.90;;;;;;4968538;28;20062;-79
2022/09/16 03:34:36;;;;;;;13.55;2.17;;;12.80;99.90;;;;;;5011871;28;20092;-78
2022/09/16 03:37:26;;;;;;;12.57;2.00;;;12.80;99.90;;;;;;5010982;28;20053;-78
2022/09/16 03:40:18;;;;;;;10.48;2.17;;;12.90;99.90;;;;;;4983918;28;20150;-76
2022/09/16 03:43:15;;;;;;;10.52;2.10;;;12.90;99.90;;;;;;4994205;28;20116;-78
2022/09/16 03:46:01;;;;;;;10.00;1.48;;;12.90;99.90;;;;;;4996413;28;20077;-78
2022/09/16 03:48:48;;;;;;;10.80;1.85;;;12.90;99.90;;;;;;5011629;28;20041;-78
2022/09/16 03:51:35;;;;;;;8.73;0.93;;;12.90;99.90;;;;;;5010783;28;20124;-77
2022/09/16 03:54:21;;;;;;;9.65;1.90;;;12.90;99.90;;;;;;4994739;28;20057;-78
2022/09/16 03:57:08;;;;;;;12.65;1.60;;;12.90;99.90;;;;;;4992916;28;20490;-79
2022/09/16 03:59:54;;;;;;;11.60;2.28;;;12.90;99.90;;;;;;5010634;28;20042;-78
2022/09/16 04:02:41;;;;;;;12.63;1.75;;;13.00;99.90;;;;;;4979456;28;20046;-78
2022/09/16 04:05:27;;;;;;;9.88;1.95;;;13.00;99.90;;;;;;4994331;28;20140;-78
2022/09/16 04:08:13;;;;;;;19.48;2.25;;;13.10;99.90;;;;;;4997125;28;20164;-78
2022/09/16 04:11:04;;;;;;;10.30;1.92;;;13.20;99.90;;;;;;5011153;28;20049;-77
2022/09/16 04:13:50;;;;;;;15.20;2.03;;;13.20;99.90;;;;;;5010334;28;20115;-77
2022/09/16 04:16:36;;;;;;;9.38;1.95;;;13.20;99.90;;;;;;5010608;28;20464;-76
2022/09/16 04:19:23;;;;;;;11.88;1.65;;;13.20;99.90;;;;;;5010552;28;20042;-78
2022/09/16 04:22:12;;;;;;;12.77;2.33;;;13.20;99.90;;;;;;5010702;28;20054;-78
2022/09/16 04:24:58;;;;;;;12.57;2.35;;;13.10;99.90;;;;;;5009909;28;20050;-78
2022/09/16 04:27:44;;;;;;;17.80;2.75;;;13.10;99.90;;;;;;5013172;28;20084;-77
2022/09/16 04:30:31;;;;;;;13.75;1.70;;;13.10;99.90;;;;;;5010664;28;20046;-76
2022/09/16 04:33:17;;;;;;;14.45;2.60;;;13.10;99.90;;;;;;5010985;28;20052;-78
2022/09/16 04:36:08;;;;;;;12.98;2.08;;;13.10;99.90;;;;;;5008978;28;20578;-77
2022/09/16 04:38:54;;;;;;;19.27;2.17;;;13.00;99.90;;;;;;4993568;28;20415;-79
2022/09/16 04:41:40;;;;;;;8.07;1.55;;;13.00;99.90;;;;;;5003586;28;20108;-78
2022/09/16 04:44:29;;;;;;;11.50;1.75;;;13.00;99.90;;;;;;5000176;28;20053;-78
2022/09/16 04:47:15;;;;;;;11.82;1.88;;;13.00;99.90;;;;;;5003913;28;20053;-78
2022/09/16 04:50:01;;;;;;;11.63;2.05;;;13.00;99.90;;;;;;5016774;28;20356;-79
2022/09/16 04:52:47;;;;;;;10.15;1.60;;;13.00;99.90;;;;;;5016412;28;20052;-78
2022/09/16 04:55:34;;;;;;;7.82;1.67;;;13.00;99.90;;;;;;4999001;28;20517;-80
2022/09/16 04:58:20;;;;;;;14.80;1.83;;;13.10;99.90;;;;;;4999389;28;20060;-80
2022/09/16 05:01:12;;;;;;;10.98;2.28;;;12.90;99.90;;;;;;4999781;28;20093;-78
2022/09/16 05:04:01;;;;;;;12.90;1.63;;;12.80;99.90;;;;;;5003856;28;20088;-78
2022/09/16 05:06:47;;;;;;;16.25;1.90;;;12.70;99.90;;;;;;5016013;28;20585;-78
2022/09/16 05:09:34;;;;;;;14.13;2.13;;;12.60;99.90;;;;;;5016162;28;20278;-79
2022/09/16 05:12:21;;;;;;;9.70;2.30;;;12.60;99.90;;;;;;4998728;28;20938;-78
2022/09/16 05:15:08;;;;;;;11.18;1.40;;;12.60;99.90;;;;;;5017801;28;20440;-78
2022/09/16 05:17:54;;;;;;;15.50;2.38;;;12.70;99.90;;;;;;5017156;28;20049;-78
2022/09/16 05:20:40;;;;;;;13.90;2.40;;;12.80;99.90;;;;;;5000063;28;20652;-80
2022/09/16 05:23:27;;;;;;;14.60;2.38;;;12.80;99.90;;;;;;4999375;28;20062;-78
2022/09/16 05:26:23;;;;;;;15.13;2.47;;;12.90;99.90;;;;;;5000570;28;20046;-79
2022/09/16 05:29:14;;;;;;;15.85;2.88;;;13.00;99.90;;;;;;5000424;28;20056;-80
2022/09/16 05:32:01;;;;;;;10.35;2.10;;;13.10;99.90;;;;;;5016932;28;20481;-78
2022/09/16 05:34:48;;;;;;;10.15;2.08;;;13.10;99.90;;;;;;5016459;28;20088;-79
